Flight Track Log - Related Links

Times and Time Zones

All times are in EDT time to prevent confusion due to time zone crossing. See the FLG3757 flight status page for this flight to view local times or setup timezone preferences in your user account.

Time Position Orientation Groundspeed Altitude Reporting Facility
EDT Latitude Longitude Course Direction KTS MPH feet Rate Location/Type
Fri 06:10:05 AM 42.2389 -76.0211 289° West 136 157 3,100  Level Cleveland Center
Fri 06:10:50 AM 42.2581 -76.0914 290° West 202 232 4,700 1,886 Climbing New York Center
Fri 06:11:50 AM 42.2808 -76.1828 289° West 237 273 6,400 2,102 Climbing New York Center
Fri 06:14:07 AM 42.3508 -76.4203 292° West 310 357 11,600 2,182 Climbing Cleveland Center
Fri 06:15:00 AM 42.2278 -76.6293 289° West  Level Estimated
Fri 06:15:08 AM 42.3808 -76.5325 290° West 317 365 13,600  Level Cleveland Center
Fri 06:16:09 AM 42.4122 -76.6494 290° West 329 379 15,500 1,438 Climbing Cleveland Center
Fri 06:17:09 AM 42.4456 -76.7706 290° West 342 394 16,500 1,091 Climbing Cleveland Center
Fri 06:18:10 AM 42.4872 -76.9275 290° West 365 420 17,700 984 Climbing Cleveland Center
Fri 06:19:11 AM 42.5167 -77.0642 286° West 378 435 18,500 885 Climbing Cleveland Center
Fri 06:20:12 AM 42.5247 -77.2103 274° West 388 447 19,500 992 Climbing Cleveland Center
Fri 06:21:12 AM 42.5350 -77.3581 275° West 393 452 20,500 942 Climbing Cleveland Center
Fri 06:22:13 AM 42.5436 -77.4956 275° West 393 452 21,400 934 Climbing Cleveland Center
Fri 06:23:14 AM 42.5531 -77.6447 275° West 396 456 22,400 984 Climbing Cleveland Center
Fri 06:24:15 AM 42.5619 -77.7922 275° West 393 452 23,400 1,082 Climbing Cleveland Center
Fri 06:25:16 AM 42.5719 -77.9575 275° West 390 449 24,600 893 Climbing Cleveland Center
Fri 06:26:16 AM 42.5803 -78.1031 274° West 389 448 25,200 545 Climbing Cleveland Center
Fri 06:27:17 AM 42.5883 -78.2525 274° West 395 455 25,700 492 Climbing Cleveland Center
Fri 06:28:18 AM 42.5975 -78.4044 275° West 401 461 26,200 492 Climbing Cleveland Center
Fri 06:29:19 AM 42.6072 -78.5561 275° West 404 465 26,700 492 Climbing Cleveland Center
Fri 06:30:20 AM 42.6142 -78.7103 274° West 411 473 27,200 492 Climbing Cleveland Center
Fri 06:31:21 AM 42.6228 -78.8614 274° West 404 465 27,700 393 Climbing Cleveland Center
Fri 06:32:22 AM 42.6297 -79.0139 274° West 405 466 28,000 148 Climbing Cleveland Center
Fri 06:33:23 AM 42.6367 -79.1692 274° West 412 474 28,000  Level Cleveland Center
Fri 06:34:24 AM 42.6447 -79.3250 274° West 415 478 28,000  Level Cleveland Center
Fri 06:35:25 AM 42.6514 -79.4825 273° West 418 481 28,000  Level Cleveland Center
Fri 06:36:26 AM 42.6586 -79.6406 274° West 422 486 28,000  Level Cleveland Center
Fri 06:37:27 AM 42.6647 -79.7994 273° West 422 486 28,000  Level Cleveland Center
Fri 06:38:28 AM 42.6728 -79.9889 273° West 421 484 28,000  Level Cleveland Center
Fri 06:39:29 AM 42.6772 -80.1294 273° West 419 482 28,000  Level Cleveland Center
Fri 06:40:30 AM 42.6836 -80.2889 273° West 419 482 28,000  Level Cleveland Center
Fri 06:41:31 AM 42.6903 -80.4503 273° West 422 486 28,000  Level Cleveland Center
Fri 06:42:33 AM 42.6950 -80.6111 272° West 423 487 28,000  Level Cleveland Center
Fri 06:43:34 AM 42.7028 -80.8019 273° West 433 498 28,000 -295 Level Cleveland Center
Fri 06:44:35 AM 42.6958 -80.9631 267° West 429 494 27,400 -829 Descending Cleveland Center
Fri 06:45:37 AM 42.6789 -81.1217 262° West 423 487 26,300 -1,024 Descending Cleveland Center
Fri 06:46:38 AM 42.6608 -81.2794 261° West 420 483 25,300 -984 Descending Cleveland Center
Fri 06:47:39 AM 42.6425 -81.4367 261° West 419 482 24,300 -984 Descending Cleveland Center
Fri 06:48:40 AM 42.6231 -81.5936 260° West 419 482 23,300 -1,317 Descending Cleveland Center
Fri 06:49:42 AM 42.6053 -81.7483 261° West 414 476 21,600 -1,756 Descending Cleveland Center
Fri 06:50:43 AM 42.5878 -81.8892 260° West 411 473 19,700 -1,902 Descending Cleveland Center
Fri 06:51:45 AM 42.5711 -82.0361 261° West 399 459 17,700 -2,049 Descending Cleveland Center
Fri 06:52:46 AM 42.5503 -82.2072 261° West 388 447 15,500 -2,170 Descending Cleveland Center
Fri 06:53:19 AM 42.5403 -82.2903 261° West 379 436 14,300 -1,967 Descending Cleveland Center
Fri 06:53:47 AM 42.5322 -82.3456 259° West 378 435 13,500 -1,837 Descending Cleveland Center
Fri 06:54:08 AM 42.5267 -82.3961 262° West 373 429 12,800 -1,452 Descending Cleveland Center
Fri 06:54:49 AM 42.5147 -82.4831 259° West 374 430 12,000 -716 Descending Cleveland Center
Fri 06:55:15 AM 42.5056 -82.5492 259° West 358 412 12,000 -197 Level Cleveland Center
Fri 06:55:50 AM 42.4847 -82.6061 244° Southwest 352 405 11,800 -800 Descending Cleveland Center
Fri 06:56:15 AM 42.4658 -82.6656 247° West 348 400 11,200 -1,161 Descending Cleveland Center
Fri 06:56:52 AM 42.4461 -82.7147 241° Southwest 331 381 10,600 -1,522 Descending Cleveland Center
Fri 06:57:22 AM 42.4289 -82.7739 248° West 282 325 9,500 -1,869 Descending Cleveland Center
Fri 06:57:53 AM 42.4219 -82.8150 257° West 297 342 8,700 -1,970 Descending Cleveland Center
Fri 06:58:29 AM 42.4156 -82.8964 264° West 283 326 7,300 -1,935 Descending Cleveland Center
Fri 06:58:55 AM 42.4144 -82.9211 267° West 286 329 6,700 -1,300 Descending Cleveland Center
Fri 06:59:29 AM 42.4100 -83.0003 266° West 279 321 6,000 -689 Descending Cleveland Center
Fri 06:59:56 AM 42.4061 -83.0244 258° West 280 322 6,000  Level Cleveland Center
Fri 07:00:30 AM 42.4003 -83.1006 264° West 271 312 6,000 -774 Level Cleveland Center
Fri 07:00:58 AM 42.3836 -83.1392 240° Southwest 270 311 5,200 -1,881 Descending Cleveland Center
Fri 07:01:37 AM 42.3594 -83.1994 242° Southwest 260 299 3,900 -1,770 Descending Cleveland Center
Fri 07:01:59 AM 42.3450 -83.2236 231° Southwest 264 304 3,400 -1,182 Descending Cleveland Center
Fri 07:02:43 AM 42.3058 -83.2711 222° Southwest 212 244 2,600 -968 Descending Cleveland Center
Fri 07:03:01 AM 42.2950 -83.2769 202° Southwest 231 266 2,400 -837 Descending Cleveland Center
Fri 07:03:26 AM 42.2747 -83.2922 209° Southwest 162 186 2,000 -885 Descending Cleveland Center
Fri 07:04:02 AM 42.2556 -83.3061 208° Southwest 171 197 1,500 -822 Descending Cleveland Center
Fri 07:04:39 AM 42.2303 -83.3253 209° Southwest 151 174 1,000 -689 Descending Cleveland Center
Fri 07:05:03 AM 42.2208 -83.3308 204° Southwest 151 174 800 -500 Descending Cleveland Center
Fri 07:07:00 AM 42.2000 -83.3500 236° Southwest  Level FlightAware Approximate
Fri 07:14:00 AM 42.2124 -83.3534 236° Southwest  Level Estimated

Login

Don't have an account? Register now (free) for customized features, flight alerts, and more!